createdAt,value
2018-07-13T00:00:01.851Z,1014.25
2018-07-13T00:01:03.341Z,1014.23
2018-07-13T00:02:01.256Z,1014.30
2018-07-13T00:03:02.288Z,1014.26
2018-07-13T00:04:01.313Z,1014.28
2018-07-13T00:05:01.199Z,1014.24
2018-07-13T00:06:18.979Z,1014.26
2018-07-13T00:07:00.471Z,1014.26
2018-07-13T00:08:00.491Z,1014.32
2018-07-13T00:09:00.514Z,1014.30
2018-07-13T00:10:01.242Z,1014.29
2018-07-13T00:11:01.085Z,1014.31
2018-07-13T00:12:01.300Z,1014.29
2018-07-13T00:13:01.507Z,1014.30
2018-07-13T00:14:01.782Z,1014.29
2018-07-13T00:15:00.468Z,1014.31
2018-07-13T00:16:01.756Z,1014.30
2018-07-13T00:17:01.741Z,1014.31
2018-07-13T00:18:01.118Z,1014.33
2018-07-13T00:19:01.014Z,1014.34
2018-07-13T00:20:01.034Z,1014.40
2018-07-13T00:21:01.279Z,1014.33
2018-07-13T00:22:01.807Z,1014.35
2018-07-13T00:23:01.208Z,1014.35
2018-07-13T00:24:01.428Z,1014.34
2018-07-13T00:25:01.289Z,1014.39
2018-07-13T00:26:01.001Z,1014.37
2018-07-13T00:27:00.538Z,1014.40
2018-07-13T00:28:01.601Z,1014.41
2018-07-13T00:29:01.066Z,1014.44
2018-07-13T00:30:01.265Z,1014.47
2018-07-13T00:31:01.051Z,1014.45
2018-07-13T00:32:01.034Z,1014.47
2018-07-13T00:33:00.573Z,1014.50
2018-07-13T00:34:01.365Z,1014.47
2018-07-13T00:35:01.021Z,1014.48
2018-07-13T00:36:01.733Z,1014.47
2018-07-13T00:37:00.733Z,1014.49
2018-07-13T00:38:01.664Z,1014.49
2018-07-13T00:39:01.380Z,1014.50
2018-07-13T00:40:01.771Z,1014.47
2018-07-13T00:41:01.204Z,1014.48
2018-07-13T00:42:00.588Z,1014.47
2018-07-13T00:43:01.578Z,1014.49
2018-07-13T00:44:01.943Z,1014.49
2018-07-13T00:45:01.714Z,1014.49
2018-07-13T00:46:02.363Z,1014.45
2018-07-13T00:47:01.923Z,1014.45
2018-07-13T00:48:01.690Z,1014.46
2018-07-13T00:49:00.636Z,1014.44
2018-07-13T00:50:00.668Z,1014.42
2018-07-13T00:51:00.964Z,1014.45
2018-07-13T00:52:01.584Z,1014.48
2018-07-13T00:53:01.469Z,1014.47
2018-07-13T00:54:01.067Z,1014.47
2018-07-13T00:55:00.872Z,1014.47
2018-07-13T00:56:01.453Z,1014.46
2018-07-13T00:57:01.565Z,1014.45
2018-07-13T00:58:00.879Z,1014.45
2018-07-13T00:59:02.455Z,1014.45
2018-07-13T01:00:00.768Z,1014.40
2018-07-13T01:01:02.960Z,1014.42
2018-07-13T01:02:00.894Z,1014.41
2018-07-13T01:03:00.870Z,1014.40
2018-07-13T01:04:01.313Z,1014.42
2018-07-13T01:05:01.092Z,1014.41
2018-07-13T01:06:01.508Z,1014.39
2018-07-13T01:07:01.429Z,1014.40
2018-07-13T01:08:01.889Z,1014.44
2018-07-13T01:09:03.170Z,1014.42
2018-07-13T01:10:01.618Z,1014.44
2018-07-13T01:11:01.543Z,1014.41
2018-07-13T01:12:01.557Z,1014.42
2018-07-13T01:13:01.274Z,1014.41
2018-07-13T01:14:01.119Z,1014.42
2018-07-13T01:15:00.867Z,1014.42
2018-07-13T01:16:00.879Z,1014.43
2018-07-13T01:17:01.091Z,1014.39
2018-07-13T01:18:01.029Z,1014.44
2018-07-13T01:19:00.829Z,1014.43
2018-07-13T01:20:01.295Z,1014.45
2018-07-13T01:21:01.166Z,1014.44
2018-07-13T01:22:00.985Z,1014.48
2018-07-13T01:23:01.005Z,1014.50
2018-07-13T01:24:01.305Z,1014.47
2018-07-13T01:25:00.907Z,1014.50
2018-07-13T01:26:01.305Z,1014.49
2018-07-13T01:27:00.808Z,1014.47
2018-07-13T01:28:00.890Z,1014.52
2018-07-13T01:29:01.823Z,1014.56
2018-07-13T01:30:01.608Z,1014.56
2018-07-13T01:31:01.111Z,1014.55
2018-07-13T01:32:00.996Z,1014.59
2018-07-13T01:33:01.018Z,1014.57
2018-07-13T01:34:01.647Z,1014.58
2018-07-13T01:35:02.677Z,1014.60
2018-07-13T01:36:01.028Z,1014.58
2018-07-13T01:37:00.960Z,1014.62
2018-07-13T01:38:00.849Z,1014.62
2018-07-13T01:40:03.195Z,1014.62
2018-07-13T01:41:01.647Z,1014.64
2018-07-13T01:42:01.189Z,1014.69
2018-07-13T01:43:01.529Z,1014.67
2018-07-13T01:44:01.747Z,1014.71
2018-07-13T01:45:01.036Z,1014.69
2018-07-13T01:46:01.096Z,1014.69
2018-07-13T01:47:01.115Z,1014.68
2018-07-13T01:48:01.069Z,1014.73
2018-07-13T01:49:01.608Z,1014.71
2018-07-13T01:50:00.848Z,1014.69
2018-07-13T01:51:01.138Z,1014.71
2018-07-13T01:52:01.140Z,1014.72
2018-07-13T01:53:01.418Z,1014.75
2018-07-13T01:54:01.409Z,1014.73
2018-07-13T01:55:01.018Z,1014.72
2018-07-13T01:56:01.484Z,1014.72
2018-07-13T01:57:01.440Z,1014.74
2018-07-13T01:58:01.068Z,1014.72
2018-07-13T01:59:01.593Z,1014.73
2018-07-13T02:00:01.189Z,1014.69
2018-07-13T02:01:01.142Z,1014.71
2018-07-13T02:02:00.990Z,1014.69
2018-07-13T02:03:00.979Z,1014.73
2018-07-13T02:04:01.739Z,1014.74
2018-07-13T02:05:00.882Z,1014.70
2018-07-13T02:06:01.090Z,1014.74
2018-07-13T02:07:01.060Z,1014.75
2018-07-13T02:08:01.018Z,1014.73
2018-07-13T02:09:01.047Z,1014.74
2018-07-13T02:10:01.054Z,1014.77
2018-07-13T02:11:01.215Z,1014.76
2018-07-13T02:12:00.990Z,1014.76
2018-07-13T02:13:00.785Z,1014.78
2018-07-13T02:14:01.597Z,1014.76
2018-07-13T02:15:00.980Z,1014.76
2018-07-13T02:16:01.507Z,1014.78
2018-07-13T02:17:01.119Z,1014.76
2018-07-13T02:18:01.956Z,1014.80
2018-07-13T02:19:01.325Z,1014.80
2018-07-13T02:20:01.138Z,1014.79
2018-07-13T02:21:01.722Z,1014.79
2018-07-13T02:22:01.143Z,1014.78
2018-07-13T02:23:01.085Z,1014.76
2018-07-13T02:24:01.980Z,1014.76
2018-07-13T02:25:01.297Z,1014.81
2018-07-13T02:26:01.047Z,1014.80
2018-07-13T02:27:00.980Z,1014.78
2018-07-13T02:28:00.989Z,1014.78
2018-07-13T02:29:01.314Z,1014.77
2018-07-13T02:30:01.811Z,1014.73
2018-07-13T02:31:01.839Z,1014.73
2018-07-13T02:32:02.241Z,1014.77
2018-07-13T02:33:01.099Z,1014.73
2018-07-13T02:34:03.347Z,1014.74
2018-07-13T02:35:01.203Z,1014.76
2018-07-13T02:36:01.489Z,1014.76
2018-07-13T02:37:01.639Z,1014.76
2018-07-13T02:38:02.077Z,1014.73
2018-07-13T02:39:01.227Z,1014.76
2018-07-13T02:40:01.075Z,1014.82
2018-07-13T02:41:02.288Z,1014.79
2018-07-13T02:42:01.114Z,1014.85
2018-07-13T02:43:01.217Z,1014.84
2018-07-13T02:44:02.502Z,1014.82
2018-07-13T02:45:01.072Z,1014.87
2018-07-13T02:46:01.248Z,1014.81
2018-07-13T02:47:01.990Z,1014.82
2018-07-13T02:48:01.698Z,1014.83
2018-07-13T02:49:02.053Z,1014.83
2018-07-13T02:50:01.922Z,1014.84
2018-07-13T02:51:03.184Z,1014.85
2018-07-13T02:52:01.804Z,1014.84
2018-07-13T02:53:01.279Z,1014.81
2018-07-13T02:54:01.124Z,1014.86
2018-07-13T02:55:02.065Z,1014.85
2018-07-13T02:56:01.137Z,1014.85
2018-07-13T02:57:01.184Z,1014.86
2018-07-13T02:58:01.256Z,1014.89
2018-07-13T02:59:01.109Z,1014.91
2018-07-13T03:00:02.405Z,1014.93
2018-07-13T03:01:01.093Z,1014.93
2018-07-13T03:02:01.181Z,1014.96
2018-07-13T03:03:02.062Z,1014.97
2018-07-13T03:04:02.206Z,1014.96
2018-07-13T03:05:01.374Z,1014.96
2018-07-13T03:06:01.405Z,1014.97
2018-07-13T03:07:01.147Z,1014.99
2018-07-13T03:08:01.213Z,1015.02
2018-07-13T03:09:01.230Z,1015.00
2018-07-13T03:10:03.590Z,1014.98
2018-07-13T03:11:01.869Z,1014.99
2018-07-13T03:12:01.858Z,1014.99
2018-07-13T03:13:01.067Z,1015.01
2018-07-13T03:14:02.204Z,1015.03
2018-07-13T03:15:01.887Z,1015.05
2018-07-13T03:16:01.821Z,1015.04
2018-07-13T03:17:03.239Z,1015.05
2018-07-13T03:18:01.234Z,1015.04
2018-07-13T03:19:01.374Z,1015.05
2018-07-13T03:20:01.198Z,1015.08
2018-07-13T03:21:01.194Z,1015.11
2018-07-13T03:22:01.229Z,1015.10
2018-07-13T03:23:03.526Z,1015.10
2018-07-13T03:24:01.246Z,1015.16
2018-07-13T03:25:01.155Z,1015.18
2018-07-13T03:26:01.347Z,1015.16
2018-07-13T03:27:02.365Z,1015.16
2018-07-13T03:28:01.261Z,1015.14
2018-07-13T03:29:01.477Z,1015.18
2018-07-13T03:30:01.519Z,1015.17
2018-07-13T03:31:01.391Z,1015.17
2018-07-13T03:32:02.104Z,1015.17
2018-07-13T03:33:01.407Z,1015.16
2018-07-13T03:34:01.339Z,1015.20
2018-07-13T03:35:01.485Z,1015.21
2018-07-13T03:36:01.430Z,1015.18
2018-07-13T03:37:01.248Z,1015.22
2018-07-13T03:38:01.575Z,1015.22
2018-07-13T03:39:02.138Z,1015.24
2018-07-13T03:40:02.733Z,1015.25
2018-07-13T03:41:01.371Z,1015.23
2018-07-13T03:42:01.367Z,1015.26
2018-07-13T03:43:01.872Z,1015.26
2018-07-13T03:44:03.140Z,1015.27
2018-07-13T03:45:01.247Z,1015.26
2018-07-13T03:46:01.305Z,1015.27
2018-07-13T03:47:01.634Z,1015.27
2018-07-13T03:48:01.103Z,1015.30
2018-07-13T03:49:01.494Z,1015.31
2018-07-13T03:50:02.403Z,1015.30
2018-07-13T03:51:01.338Z,1015.29
2018-07-13T03:52:01.423Z,1015.29
2018-07-13T03:53:01.627Z,1015.28
2018-07-13T03:54:01.382Z,1015.27
2018-07-13T03:55:01.496Z,1015.27
2018-07-13T03:56:01.410Z,1015.26
2018-07-13T03:57:01.533Z,1015.27
2018-07-13T03:58:01.584Z,1015.26
2018-07-13T03:59:02.355Z,1015.31
2018-07-13T04:00:01.217Z,1015.26
2018-07-13T04:01:01.350Z,1015.28
2018-07-13T04:02:01.450Z,1015.29
2018-07-13T04:03:02.462Z,1015.28
2018-07-13T04:04:03.550Z,1015.29
2018-07-13T04:05:02.123Z,1015.28
2018-07-13T04:06:01.598Z,1015.30
2018-07-13T04:07:01.347Z,1015.31
2018-07-13T04:08:01.370Z,1015.30
2018-07-13T04:09:01.477Z,1015.29
2018-07-13T04:10:01.836Z,1015.32
2018-07-13T04:11:02.047Z,1015.32
2018-07-13T04:12:01.211Z,1015.30
2018-07-13T04:13:01.189Z,1015.32
2018-07-13T04:14:01.352Z,1015.30
2018-07-13T04:15:01.511Z,1015.33
2018-07-13T04:16:01.370Z,1015.31
2018-07-13T04:17:02.468Z,1015.30
2018-07-13T04:18:01.528Z,1015.31
2018-07-13T04:19:01.414Z,1015.34
2018-07-13T04:20:01.359Z,1015.35
2018-07-13T04:21:01.390Z,1015.37
2018-07-13T04:22:01.900Z,1015.38
2018-07-13T04:23:01.346Z,1015.39
2018-07-13T04:24:01.410Z,1015.39
2018-07-13T04:25:01.244Z,1015.40
2018-07-13T04:26:01.459Z,1015.41
2018-07-13T04:27:02.003Z,1015.43
2018-07-13T04:28:01.342Z,1015.40
2018-07-13T04:29:01.432Z,1015.41
2018-07-13T04:30:01.439Z,1015.42
2018-07-13T04:31:01.355Z,1015.41
2018-07-13T04:32:01.385Z,1015.40
2018-07-13T04:33:01.330Z,1015.38
2018-07-13T04:34:01.424Z,1015.38
2018-07-13T04:35:01.344Z,1015.35
2018-07-13T04:36:01.855Z,1015.39
2018-07-13T04:37:01.284Z,1015.37
2018-07-13T04:38:01.208Z,1015.37
2018-07-13T04:39:01.439Z,1015.36
2018-07-13T04:40:01.223Z,1015.41
2018-07-13T04:41:02.011Z,1015.36
2018-07-13T04:42:01.567Z,1015.41
2018-07-13T04:43:01.468Z,1015.44
2018-07-13T04:44:01.333Z,1015.43
2018-07-13T04:45:01.412Z,1015.43
2018-07-13T04:46:01.366Z,1015.44
2018-07-13T04:47:01.279Z,1015.46
2018-07-13T04:48:01.415Z,1015.39
2018-07-13T04:49:01.528Z,1015.40
2018-07-13T04:50:01.467Z,1015.41
2018-07-13T04:51:01.660Z,1015.43
2018-07-13T04:52:02.357Z,1015.44
2018-07-13T04:53:01.918Z,1015.41
2018-07-13T04:54:02.333Z,1015.41
2018-07-13T04:55:01.674Z,1015.47
2018-07-13T04:56:01.427Z,1015.46
2018-07-13T04:57:01.503Z,1015.51
2018-07-13T04:58:01.606Z,1015.48
2018-07-13T04:59:01.651Z,1015.51
2018-07-13T05:00:01.590Z,1015.52
2018-07-13T05:01:01.312Z,1015.49
2018-07-13T05:02:03.260Z,1015.50
2018-07-13T05:03:02.256Z,1015.52
2018-07-13T05:04:01.978Z,1015.52
2018-07-13T05:05:01.804Z,1015.52
2018-07-13T05:06:02.156Z,1015.54
2018-07-13T05:07:01.583Z,1015.52
2018-07-13T05:08:01.468Z,1015.54
2018-07-13T05:09:01.682Z,1015.56
2018-07-13T05:10:01.590Z,1015.53
2018-07-13T05:11:01.438Z,1015.56
2018-07-13T05:12:02.085Z,1015.54
2018-07-13T05:13:01.704Z,1015.51
2018-07-13T05:14:02.161Z,1015.51
2018-07-13T05:15:02.603Z,1015.52
2018-07-13T05:16:01.449Z,1015.51
2018-07-13T05:17:02.330Z,1015.51
2018-07-13T05:18:01.798Z,1015.48
2018-07-13T05:19:01.650Z,1015.50
2018-07-13T05:20:01.765Z,1015.51
2018-07-13T05:21:01.758Z,1015.49
2018-07-13T05:22:01.391Z,1015.49
2018-07-13T05:23:01.298Z,1015.52
2018-07-13T05:24:01.585Z,1015.56
2018-07-13T05:25:01.416Z,1015.51
2018-07-13T05:26:01.876Z,1015.53
2018-07-13T05:27:01.612Z,1015.51
2018-07-13T05:28:01.605Z,1015.54
2018-07-13T05:29:01.490Z,1015.56
2018-07-13T05:30:01.999Z,1015.57
2018-07-13T05:31:02.001Z,1015.56
2018-07-13T05:32:01.510Z,1015.56
2018-07-13T05:33:01.913Z,1015.61
2018-07-13T05:34:01.690Z,1015.61
2018-07-13T05:35:01.390Z,1015.58
2018-07-13T05:36:01.661Z,1015.59
2018-07-13T05:37:01.653Z,1015.58
2018-07-13T05:38:01.546Z,1015.59
2018-07-13T05:39:01.627Z,1015.59
2018-07-13T05:40:02.113Z,1015.59
2018-07-13T05:41:01.557Z,1015.62
2018-07-13T05:42:01.933Z,1015.59
2018-07-13T05:43:01.876Z,1015.62
2018-07-13T05:44:01.539Z,1015.59
2018-07-13T05:45:01.586Z,1015.69
2018-07-13T05:46:01.635Z,1015.71
2018-07-13T05:47:01.613Z,1015.68
2018-07-13T05:48:01.901Z,1015.70
2018-07-13T05:49:01.544Z,1015.70
2018-07-13T05:50:01.484Z,1015.72
2018-07-13T05:51:01.577Z,1015.76
2018-07-13T05:52:01.650Z,1015.77
2018-07-13T05:53:01.643Z,1015.80
2018-07-13T05:54:01.918Z,1015.84
2018-07-13T05:55:01.585Z,1015.82
2018-07-13T05:56:01.600Z,1015.75
2018-07-13T05:57:01.769Z,1015.78
2018-07-13T05:58:04.453Z,1015.81
2018-07-13T05:59:01.451Z,1015.78
2018-07-13T06:00:01.908Z,1015.84
2018-07-13T06:01:02.680Z,1015.88
2018-07-13T06:02:01.978Z,1015.79
2018-07-13T06:03:02.260Z,1015.91
2018-07-13T06:04:02.199Z,1015.80
2018-07-13T06:05:02.464Z,1015.80
2018-07-13T06:06:01.779Z,1015.84
2018-07-13T06:07:01.677Z,1015.89
2018-07-13T06:08:02.571Z,1015.90
2018-07-13T06:09:01.510Z,1015.83
2018-07-13T06:11:02.013Z,1015.86
2018-07-13T06:12:01.454Z,1015.87
2018-07-13T06:13:01.689Z,1015.84
2018-07-13T06:14:01.924Z,1015.81
2018-07-13T06:15:01.687Z,1015.83
2018-07-13T06:16:01.819Z,1015.83
2018-07-13T06:17:02.414Z,1015.80
2018-07-13T06:20:34.757Z,1015.81
2018-07-13T06:21:34.418Z,1015.82
2018-07-13T06:22:34.324Z,1015.87
2018-07-13T06:23:34.321Z,1015.83
2018-07-13T06:24:34.427Z,1015.83
2018-07-13T06:25:35.463Z,1015.84
2018-07-13T06:26:34.753Z,1015.85
2018-07-13T06:27:34.324Z,1015.91
2018-07-13T06:28:34.282Z,1015.94
2018-07-13T06:29:34.322Z,1016.09
2018-07-13T06:30:34.303Z,1015.99
2018-07-13T06:31:34.316Z,1016.04
2018-07-13T06:32:34.298Z,1016.08
2018-07-13T06:33:34.961Z,1015.99
2018-07-13T06:34:34.342Z,1015.98
2018-07-13T06:35:34.393Z,1015.97
2018-07-13T06:36:34.298Z,1015.99
2018-07-13T06:37:34.315Z,1015.95
2018-07-13T06:38:34.298Z,1015.95
2018-07-13T06:39:34.395Z,1016.05
2018-07-13T06:40:34.313Z,1016.07
2018-07-13T06:41:34.321Z,1016.01
2018-07-13T06:42:34.377Z,1016.06
2018-07-13T06:43:34.309Z,1016.10
2018-07-13T06:44:34.328Z,1016.19
2018-07-13T06:45:34.364Z,1016.19
2018-07-13T06:46:34.423Z,1016.20
2018-07-13T06:47:34.401Z,1016.13
2018-07-13T06:48:34.368Z,1016.22
2018-07-13T06:49:34.427Z,1016.26
2018-07-13T06:50:34.393Z,1016.19
2018-07-13T06:51:34.351Z,1016.12
2018-07-13T06:52:34.340Z,1016.08
2018-07-13T06:53:34.387Z,1016.08
2018-07-13T06:54:34.396Z,1016.04
2018-07-13T06:55:34.432Z,1016.11
2018-07-13T06:56:34.372Z,1016.11
2018-07-13T06:57:34.369Z,1016.09
2018-07-13T06:58:34.342Z,1016.06
2018-07-13T06:59:34.391Z,1016.11
2018-07-13T07:00:34.434Z,1016.19
2018-07-13T07:01:34.376Z,1016.19
2018-07-13T07:02:34.416Z,1016.17
2018-07-13T07:03:34.389Z,1016.24
2018-07-13T07:04:34.399Z,1016.25
2018-07-13T07:05:34.361Z,1016.22
2018-07-13T07:06:34.413Z,1016.24
2018-07-13T07:07:34.471Z,1016.24
2018-07-13T07:08:36.951Z,1016.23
2018-07-13T07:09:51.601Z,1016.26
2018-07-13T07:12:36.886Z,1016.30
2018-07-13T07:13:37.181Z,1016.29
2018-07-13T07:14:38.818Z,1016.33
2018-07-13T07:15:35.653Z,1016.29
2018-07-13T07:16:35.345Z,1016.27
2018-07-13T07:17:38.413Z,1016.33
2018-07-13T07:18:36.276Z,1016.34
2018-07-13T07:24:20.124Z,1016.43
2018-07-13T07:25:19.539Z,1016.51
2018-07-13T07:26:19.337Z,1016.54
2018-07-13T07:27:21.069Z,1016.46
2018-07-13T07:28:20.671Z,1016.44
2018-07-13T07:29:19.776Z,1016.46
2018-07-13T07:30:19.820Z,1016.48
2018-07-13T07:31:19.682Z,1016.58
2018-07-13T07:32:20.014Z,1016.67
2018-07-13T07:33:19.183Z,1016.93
2018-07-13T07:34:19.801Z,1016.80
2018-07-13T07:35:19.107Z,1016.61
2018-07-13T07:36:19.155Z,1016.58
2018-07-13T07:37:19.135Z,1016.64
2018-07-13T07:38:19.201Z,1016.56
2018-07-13T07:39:19.083Z,1016.56
2018-07-13T07:40:19.093Z,1016.68
2018-07-13T07:41:19.190Z,1017.16
2018-07-13T07:42:19.127Z,1018.40
2018-07-13T07:43:19.157Z,1027.59
2018-07-13T07:44:19.088Z,1017.38
2018-07-13T07:45:19.673Z,1017.64
2018-07-13T07:46:19.230Z,1017.22
2018-07-13T07:47:19.076Z,1017.37
2018-07-13T07:48:19.178Z,1017.55
2018-07-13T07:49:19.071Z,1018.39
2018-07-13T07:50:19.102Z,1019.13
2018-07-13T07:51:19.128Z,1017.03
2018-07-13T07:52:19.306Z,1017.62
2018-07-13T07:53:19.115Z,1024.30
2018-07-13T07:54:19.221Z,1033.98
2018-07-13T07:55:19.131Z,1034.82
2018-07-13T07:56:19.120Z,1035.50
2018-07-13T07:57:19.132Z,1035.79
2018-07-13T07:58:19.138Z,1034.57
2018-07-13T07:59:19.784Z,1035.08
2018-07-13T08:00:19.142Z,1038.50
2018-07-13T08:01:19.123Z,1037.88
2018-07-13T08:02:19.130Z,1038.24
2018-07-13T08:03:19.169Z,1039.93
2018-07-13T08:04:19.892Z,1041.00
2018-07-13T08:05:19.477Z,1041.28
2018-07-13T08:06:19.336Z,1042.94
2018-07-13T08:07:19.386Z,1041.30
2018-07-13T08:08:19.199Z,1042.35
2018-07-13T08:09:19.191Z,1041.10
2018-07-13T08:10:19.202Z,1041.80
2018-07-13T08:11:19.224Z,1042.85
2018-07-13T08:12:19.221Z,1042.75
2018-07-13T08:13:19.230Z,1042.26
2018-07-13T08:14:19.393Z,1042.47
2018-07-13T08:15:20.189Z,1044.55
2018-07-13T08:16:19.324Z,1044.76
2018-07-13T08:17:19.325Z,1042.71
2018-07-13T08:18:19.396Z,1021.77
2018-07-13T08:19:19.316Z,1043.47
2018-07-13T08:20:19.309Z,1046.85
2018-07-13T08:21:19.344Z,1045.13
2018-07-13T08:22:19.338Z,1044.55
2018-07-13T08:23:19.370Z,1041.85
2018-07-13T08:24:19.367Z,1040.94
2018-07-13T08:25:19.419Z,1042.19
2018-07-13T08:26:19.415Z,1043.14
2018-07-13T08:27:19.425Z,1042.62
2018-07-13T08:28:19.427Z,1041.58
2018-07-13T08:29:19.458Z,1041.96
2018-07-13T08:30:19.451Z,1042.47
2018-07-13T08:31:19.620Z,1042.68
2018-07-13T08:32:19.500Z,1043.89
2018-07-13T08:33:19.539Z,1043.03
2018-07-13T08:34:19.544Z,1042.14
2018-07-13T08:35:19.586Z,1041.72
2018-07-13T08:36:19.550Z,1042.15
2018-07-13T08:37:19.622Z,1044.66
2018-07-13T08:38:19.867Z,1043.43
2018-07-13T08:39:20.244Z,1041.66
2018-07-13T08:40:19.737Z,1040.21
2018-07-13T08:41:19.666Z,1041.93
2018-07-13T08:42:19.626Z,1042.12
2018-07-13T08:43:19.659Z,1040.55
2018-07-13T08:44:19.712Z,1034.81
2018-07-13T08:45:20.024Z,1033.59
2018-07-13T08:46:20.776Z,1039.47
2018-07-13T08:47:19.758Z,1039.86
2018-07-13T08:48:19.750Z,1039.94
2018-07-13T08:49:19.845Z,1038.22
2018-07-13T08:50:19.857Z,1036.36
2018-07-13T08:51:19.786Z,1034.89
2018-07-13T08:52:19.917Z,1034.94
2018-07-13T08:53:19.847Z,1034.55
2018-07-13T08:54:19.949Z,1033.99
2018-07-13T08:55:19.887Z,1031.93
2018-07-13T08:56:19.933Z,1030.20
2018-07-13T08:57:21.823Z,1029.56
2018-07-13T08:58:19.900Z,1027.99
2018-07-13T08:59:19.940Z,1026.24
2018-07-13T09:00:19.930Z,1024.76
2018-07-13T09:01:20.064Z,1023.83
2018-07-13T09:02:20.011Z,1022.42
2018-07-13T09:03:20.058Z,1021.10
2018-07-13T09:04:20.072Z,1020.43
2018-07-13T09:05:20.092Z,1020.22
2018-07-13T09:06:20.048Z,1019.81
2018-07-13T09:07:20.079Z,1019.64
2018-07-13T09:08:20.075Z,1019.26
2018-07-13T09:09:20.081Z,1019.09
2018-07-13T09:10:20.101Z,1018.99
2018-07-13T09:11:20.122Z,1018.82
2018-07-13T09:12:20.219Z,1018.70
2018-07-13T09:13:20.198Z,1018.68
2018-07-13T09:14:20.329Z,1018.60
2018-07-13T09:15:20.270Z,1018.55
2018-07-13T09:16:20.293Z,1018.61
2018-07-13T09:17:20.229Z,1018.56
2018-07-13T09:18:20.366Z,1018.50
2018-07-13T09:19:20.306Z,1018.44
2018-07-13T09:20:21.268Z,1018.39
2018-07-13T09:21:20.312Z,1018.42
2018-07-13T09:22:20.396Z,1018.43
2018-07-13T09:23:20.364Z,1018.38
2018-07-13T09:24:20.500Z,1018.23
2018-07-13T09:25:20.467Z,1018.16
2018-07-13T09:26:20.405Z,1018.04
2018-07-13T09:27:20.432Z,1017.91
2018-07-13T09:28:20.443Z,1017.90
2018-07-13T09:29:20.462Z,1017.88
2018-07-13T09:30:20.476Z,1017.80
2018-07-13T09:31:20.577Z,1017.79
2018-07-13T09:32:20.624Z,1017.73
2018-07-13T09:33:20.582Z,1017.72
2018-07-13T09:34:20.622Z,1017.68
2018-07-13T09:35:20.674Z,1017.69
2018-07-13T09:36:20.649Z,1017.69
2018-07-13T09:37:20.665Z,1017.75
2018-07-13T09:38:21.286Z,1017.75
2018-07-13T09:39:20.685Z,1017.65
2018-07-13T09:40:20.701Z,1017.65
2018-07-13T09:41:20.724Z,1017.60
2018-07-13T09:42:21.769Z,1017.61
2018-07-13T09:43:23.394Z,1017.57
2018-07-13T09:44:20.961Z,1017.50
2018-07-13T09:45:20.926Z,1017.49
2018-07-13T09:46:21.072Z,1017.50
2018-07-13T09:47:23.384Z,1017.52
2018-07-13T09:48:20.854Z,1017.47
2018-07-13T09:49:20.891Z,1017.47
2018-07-13T09:50:20.938Z,1017.48
2018-07-13T09:51:21.892Z,1017.41
2018-07-13T09:52:21.085Z,1017.43
2018-07-13T09:53:21.031Z,1017.43
2018-07-13T09:54:20.982Z,1017.43
2018-07-13T09:55:20.990Z,1017.43
2018-07-13T09:56:21.043Z,1017.37
2018-07-13T09:57:21.761Z,1017.35
2018-07-13T09:58:21.111Z,1017.35
2018-07-13T09:59:21.105Z,1017.37
2018-07-13T10:00:21.127Z,1017.36
2018-07-13T10:01:21.167Z,1017.37
2018-07-13T10:02:21.139Z,1017.37
2018-07-13T10:03:21.237Z,1017.40
2018-07-13T10:04:21.305Z,1017.44
2018-07-13T10:05:21.225Z,1017.40
2018-07-13T10:06:21.218Z,1017.36
2018-07-13T10:07:21.451Z,1017.37
2018-07-13T10:08:21.307Z,1017.35
2018-07-13T10:09:21.305Z,1017.33
2018-07-13T10:10:21.306Z,1017.31
2018-07-13T10:11:21.338Z,1017.27
2018-07-13T10:12:21.419Z,1017.28
2018-07-13T10:13:21.427Z,1017.22
2018-07-13T10:14:22.412Z,1017.22
2018-07-13T10:15:21.486Z,1017.16
2018-07-13T10:16:21.501Z,1017.10
2018-07-13T10:17:21.542Z,1017.07
2018-07-13T10:18:21.580Z,1017.02
2018-07-13T10:19:21.572Z,1017.02
2018-07-13T10:20:21.584Z,1017.07
2018-07-13T10:21:21.595Z,1016.97
2018-07-13T10:22:21.574Z,1016.96
2018-07-13T10:23:21.619Z,1016.96
2018-07-13T10:24:22.307Z,1016.96
2018-07-13T10:25:21.654Z,1016.96
2018-07-13T10:26:21.706Z,1017.00
2018-07-13T10:27:21.779Z,1016.96
2018-07-13T10:28:21.742Z,1016.93
2018-07-13T10:29:21.756Z,1016.91
2018-07-13T10:30:22.650Z,1016.90
2018-07-13T10:31:21.881Z,1016.88
2018-07-13T10:32:21.803Z,1016.84
2018-07-13T10:33:21.885Z,1016.84
2018-07-13T10:34:21.919Z,1016.80
2018-07-13T10:35:21.904Z,1016.79
2018-07-13T10:36:22.007Z,1016.87
2018-07-13T10:37:21.944Z,1016.87
2018-07-13T10:38:21.914Z,1016.87
2018-07-13T10:39:21.962Z,1016.84
2018-07-13T10:40:21.952Z,1016.87
2018-07-13T10:41:21.977Z,1016.81
2018-07-13T10:42:22.019Z,1016.77
2018-07-13T10:43:22.086Z,1016.70
2018-07-13T10:44:22.033Z,1016.63
2018-07-13T10:45:22.168Z,1016.46
2018-07-13T10:46:22.076Z,1016.39
2018-07-13T10:47:22.102Z,1016.37
2018-07-13T10:48:22.138Z,1016.32
2018-07-13T10:49:22.797Z,1016.34
2018-07-13T10:50:22.198Z,1016.32
2018-07-13T10:51:22.174Z,1016.33
2018-07-13T10:52:22.234Z,1016.28
2018-07-13T10:53:22.254Z,1016.26
2018-07-13T10:54:22.235Z,1016.33
2018-07-13T10:55:22.316Z,1016.27
2018-07-13T10:56:22.257Z,1016.26
2018-07-13T10:57:22.278Z,1016.27
2018-07-13T10:58:22.293Z,1016.22
2018-07-13T10:59:22.797Z,1016.19
2018-07-13T11:00:22.350Z,1016.14
2018-07-13T11:01:22.347Z,1016.19
2018-07-13T11:02:22.346Z,1016.14
2018-07-13T11:03:22.370Z,1016.16
2018-07-13T11:04:22.407Z,1016.09
2018-07-13T11:05:22.439Z,1016.09
2018-07-13T11:06:22.415Z,1016.07
2018-07-13T11:07:22.515Z,1016.12
2018-07-13T11:08:22.481Z,1016.14
2018-07-13T11:09:23.304Z,1016.14
2018-07-13T11:10:22.468Z,1016.14
2018-07-13T11:11:22.456Z,1016.12
2018-07-13T11:12:22.526Z,1016.09
2018-07-13T11:13:22.494Z,1016.05
2018-07-13T11:14:22.497Z,1016.05
2018-07-13T11:15:23.440Z,1016.06
2018-07-13T11:16:22.542Z,1016.04
2018-07-13T11:17:22.549Z,1016.04
2018-07-13T11:18:22.545Z,1016.06
2018-07-13T11:19:23.317Z,1016.08
2018-07-13T11:20:22.582Z,1016.03
2018-07-13T11:21:22.626Z,1016.06
2018-07-13T11:22:22.712Z,1016.05
2018-07-13T11:23:22.664Z,1016.00
2018-07-13T11:24:22.700Z,1016.00
2018-07-13T11:25:22.611Z,1016.05
2018-07-13T11:26:22.899Z,1016.01
2018-07-13T11:27:22.757Z,1015.99
2018-07-13T11:28:22.762Z,1015.98
2018-07-13T11:29:22.923Z,1015.98
2018-07-13T11:30:22.706Z,1015.95
2018-07-13T11:31:22.761Z,1015.98
2018-07-13T11:32:22.840Z,1015.95
2018-07-13T11:33:22.742Z,1015.94
2018-07-13T11:34:22.784Z,1015.90
2018-07-13T11:35:22.815Z,1015.89
2018-07-13T11:36:22.776Z,1015.89
2018-07-13T11:38:38.361Z,1015.87
2018-07-13T11:39:23.837Z,1015.94
2018-07-13T11:40:22.849Z,1015.93
2018-07-13T11:41:23.342Z,1015.95
2018-07-13T11:42:30.344Z,1015.99
2018-07-13T11:43:22.835Z,1015.96
2018-07-13T11:44:43.906Z,1015.93
2018-07-13T11:45:22.893Z,1015.91
2018-07-13T11:46:22.844Z,1015.92
2018-07-13T11:47:22.902Z,1015.91
2018-07-13T11:48:22.906Z,1015.90
2018-07-13T11:49:22.936Z,1015.86
2018-07-13T11:50:43.917Z,1015.94
2018-07-13T11:51:22.886Z,1015.93
2018-07-13T11:52:22.923Z,1015.89
2018-07-13T11:53:23.104Z,1015.88
2018-07-13T11:54:24.968Z,1015.87
2018-07-13T11:55:23.015Z,1015.87
2018-07-13T11:56:43.971Z,1015.90
2018-07-13T11:57:23.036Z,1015.90
2018-07-13T11:58:24.351Z,1015.90
2018-07-13T11:59:23.013Z,1015.90
2018-07-13T12:00:23.020Z,1015.89
2018-07-13T12:01:23.843Z,1015.87
2018-07-13T12:02:45.147Z,1015.92
2018-07-13T12:03:23.065Z,1015.87
2018-07-13T12:04:23.848Z,1015.78
2018-07-13T12:05:23.052Z,1015.80
2018-07-13T12:06:23.005Z,1015.80
2018-07-13T12:07:25.249Z,1015.82
2018-07-13T12:08:44.064Z,1015.80
2018-07-13T12:09:23.065Z,1015.79
2018-07-13T12:10:23.140Z,1015.80
2018-07-13T12:12:23.107Z,1015.74
2018-07-13T12:13:23.106Z,1015.72
2018-07-13T12:14:44.114Z,1015.72
2018-07-13T12:15:23.972Z,1015.72
2018-07-13T12:16:23.097Z,1015.68
2018-07-13T12:17:23.196Z,1015.64
2018-07-13T12:18:23.110Z,1015.65